createdAt,value
2018-11-28T00:01:59.799Z,1.97
2018-11-28T00:04:49.714Z,2.23
2018-11-28T00:07:56.509Z,1.77
2018-11-28T00:10:46.677Z,1.90
2018-11-28T00:13:36.417Z,2.07
2018-11-28T00:16:26.294Z,2.37
2018-11-28T00:19:16.235Z,2.30
2018-11-28T00:22:06.953Z,1.97
2018-11-28T00:24:56.813Z,2.30
2018-11-28T00:27:46.893Z,2.23
2018-11-28T00:30:36.826Z,2.40
2018-11-28T00:33:28.021Z,2.13
2018-11-28T00:36:17.793Z,1.90
2018-11-28T00:39:09.371Z,2.20
2018-11-28T00:41:59.817Z,2.40
2018-11-28T00:44:50.787Z,2.10
2018-11-28T00:47:40.650Z,2.33
2018-11-28T00:50:31.297Z,2.07
2018-11-28T00:53:22.020Z,2.37
2018-11-28T00:56:11.850Z,2.30
2018-11-28T00:59:02.798Z,2.10
2018-11-28T01:01:54.251Z,2.20
2018-11-28T01:04:44.658Z,2.00
2018-11-28T01:07:34.811Z,2.30
2018-11-28T01:10:26.270Z,2.27
2018-11-28T01:13:17.024Z,1.90
2018-11-28T01:16:08.101Z,2.00
2018-11-28T01:18:58.495Z,2.13
2018-11-28T01:21:48.456Z,2.10
2018-11-28T01:24:39.231Z,2.10
2018-11-28T01:27:30.012Z,1.90
2018-11-28T01:30:27.947Z,1.97
2018-11-28T01:33:18.030Z,2.43
2018-11-28T01:36:08.577Z,1.83
2018-11-28T01:38:59.324Z,2.20
2018-11-28T01:41:50.212Z,2.20
2018-11-28T01:44:40.862Z,1.90
2018-11-28T01:47:31.528Z,2.30
2018-11-28T01:50:22.259Z,2.20
2018-11-28T01:53:12.407Z,2.00
2018-11-28T01:56:02.382Z,1.90
2018-11-28T01:58:52.163Z,2.10
2018-11-28T02:01:42.114Z,2.13
2018-11-28T02:04:33.068Z,2.10
2018-11-28T02:07:24.055Z,2.00
2018-11-28T02:10:15.695Z,1.87
2018-11-28T02:13:06.524Z,2.17
2018-11-28T02:15:57.276Z,2.33
2018-11-28T02:18:48.418Z,2.33
2018-11-28T02:21:38.417Z,2.33
2018-11-28T02:24:29.146Z,2.17
2018-11-28T02:27:19.952Z,1.97
2018-11-28T02:30:19.386Z,2.40
2018-11-28T02:33:10.029Z,2.27
2018-11-28T02:35:59.958Z,1.70
2018-11-28T02:38:50.868Z,1.70
2018-11-28T02:41:41.475Z,1.43
2018-11-28T02:44:31.593Z,1.70
2018-11-28T02:47:22.003Z,1.80
2018-11-28T02:50:12.077Z,1.77
2018-11-28T02:53:01.915Z,1.50
2018-11-28T02:55:52.872Z,1.90
2018-11-28T02:58:43.657Z,1.47
2018-11-28T03:01:34.478Z,1.60
2018-11-28T03:04:25.147Z,1.27
2018-11-28T03:07:16.209Z,1.70
2018-11-28T03:10:09.244Z,1.50
2018-11-28T03:12:59.854Z,1.40
2018-11-28T03:15:51.683Z,1.33
2018-11-28T03:18:41.569Z,1.33
2018-11-28T03:21:32.190Z,1.43
2018-11-28T03:24:23.034Z,1.33
2018-11-28T03:27:13.851Z,1.40
2018-11-28T03:30:05.252Z,1.27
2018-11-28T03:32:55.361Z,1.60
2018-11-28T03:35:46.494Z,1.80
2018-11-28T03:38:37.277Z,1.57
2018-11-28T03:41:28.255Z,1.50
2018-11-28T03:44:18.852Z,1.80
2018-11-28T03:47:08.660Z,1.50
2018-11-28T03:49:59.549Z,1.80
2018-11-28T03:52:50.269Z,1.60
2018-11-28T03:55:41.240Z,1.70
2018-11-28T03:58:31.087Z,1.60
2018-11-28T04:01:21.851Z,1.90
2018-11-28T04:04:12.632Z,1.80
2018-11-28T04:07:02.689Z,1.57
2018-11-28T04:09:53.315Z,1.47
2018-11-28T04:12:43.988Z,1.47
2018-11-28T04:15:34.173Z,1.70
2018-11-28T04:18:24.815Z,1.60
2018-11-28T04:21:15.587Z,1.50
2018-11-28T04:24:06.478Z,1.50
2018-11-28T04:26:57.363Z,1.80
2018-11-28T04:29:47.967Z,1.40
2018-11-28T04:32:38.874Z,1.30
2018-11-28T04:35:29.714Z,1.60
2018-11-28T04:38:20.519Z,1.20
2018-11-28T04:41:10.353Z,1.17
2018-11-28T04:44:00.190Z,1.50
2018-11-28T04:46:51.026Z,1.30
2018-11-28T04:49:40.965Z,1.63
2018-11-28T04:52:31.630Z,1.20
2018-11-28T04:55:22.486Z,1.40
2018-11-28T04:58:13.210Z,1.30
2018-11-28T05:01:03.968Z,1.30
2018-11-28T05:03:54.947Z,1.50
2018-11-28T05:07:49.298Z,1.73
2018-11-28T05:10:39.939Z,1.70
2018-11-28T05:13:30.704Z,1.70
2018-11-28T05:16:21.533Z,1.70
2018-11-28T05:19:12.112Z,1.73
2018-11-28T05:22:02.972Z,2.13
2018-11-28T05:24:53.871Z,1.90
2018-11-28T05:27:44.603Z,1.60
2018-11-28T05:30:35.701Z,1.43
2018-11-28T05:33:25.218Z,1.90
2018-11-28T05:36:15.024Z,2.00
2018-11-28T05:39:05.514Z,1.60
2018-11-28T05:41:56.295Z,2.00
2018-11-28T05:44:46.670Z,1.90
2018-11-28T05:47:36.715Z,1.90
2018-11-28T05:50:27.469Z,2.10
2018-11-28T05:53:18.104Z,2.00
2018-11-28T05:56:08.988Z,1.90
2018-11-28T05:58:59.034Z,2.00
2018-11-28T06:01:49.815Z,1.83
2018-11-28T06:04:40.685Z,2.00
2018-11-28T06:07:31.362Z,1.90
2018-11-28T06:10:21.804Z,2.00
2018-11-28T06:13:12.598Z,2.07
2018-11-28T06:16:03.045Z,2.30
2018-11-28T06:18:53.907Z,2.40
2018-11-28T06:21:44.648Z,2.17
2018-11-28T06:24:35.585Z,2.33
2018-11-28T06:27:26.528Z,2.10
2018-11-28T06:30:18.503Z,2.40
2018-11-28T06:33:10.146Z,2.17
2018-11-28T06:36:00.905Z,2.23
2018-11-28T06:38:50.971Z,2.10
2018-11-28T06:41:41.682Z,2.27
2018-11-28T06:44:31.790Z,2.43
2018-11-28T06:47:22.394Z,2.53
2018-11-28T06:50:20.385Z,2.00
2018-11-28T06:53:10.941Z,2.23
2018-11-28T06:55:59.712Z,2.23
2018-11-28T06:58:50.091Z,1.90
2018-11-28T07:01:40.880Z,2.08
2018-11-28T07:04:31.697Z,2.00
2018-11-28T07:07:22.846Z,2.00
2018-11-28T07:10:15.537Z,2.07
2018-11-28T07:13:06.668Z,1.77
2018-11-28T07:15:56.995Z,1.87
2018-11-28T07:19:04.224Z,1.83
2018-11-28T07:21:54.295Z,2.10
2018-11-28T07:24:45.732Z,1.80
2018-11-28T07:27:35.659Z,2.27
2018-11-28T07:30:25.570Z,1.70
2018-11-28T07:33:16.348Z,2.00
2018-11-28T07:36:07.193Z,2.13
2018-11-28T07:38:58.115Z,2.07
2018-11-28T07:41:48.928Z,2.30
2018-11-28T07:44:40.934Z,2.40
2018-11-28T07:47:29.859Z,2.10
2018-11-28T07:50:19.868Z,2.20
2018-11-28T07:53:09.786Z,2.20
2018-11-28T07:56:00.544Z,2.27
2018-11-28T07:58:50.506Z,2.40
2018-11-28T08:01:41.314Z,2.30
2018-11-28T08:04:31.349Z,2.20
2018-11-28T08:07:22.418Z,2.10
2018-11-28T08:10:23.826Z,2.10
2018-11-28T08:13:14.961Z,2.10
2018-11-28T08:16:05.723Z,2.20
2018-11-28T08:18:56.499Z,2.10
2018-11-28T08:21:47.489Z,2.15
2018-11-28T08:24:38.427Z,2.00
2018-11-28T08:27:28.972Z,2.12
2018-11-28T08:30:22.632Z,1.87
2018-11-28T08:33:13.095Z,3.10
2018-11-28T08:36:06.989Z,2.17
2018-11-28T08:38:57.650Z,1.90
2018-11-28T08:41:48.359Z,2.00
2018-11-28T08:44:38.294Z,2.30
2018-11-28T08:47:28.244Z,2.10
2018-11-28T08:50:20.995Z,2.20
2018-11-28T08:53:10.833Z,2.10
2018-11-28T08:56:01.746Z,2.00
2018-11-28T08:58:51.507Z,2.10
2018-11-28T09:01:42.359Z,1.80
2018-11-28T09:04:32.198Z,2.00
2018-11-28T09:07:22.059Z,2.00
2018-11-28T09:10:14.063Z,2.00
2018-11-28T09:13:04.622Z,2.00
2018-11-28T09:15:55.277Z,2.30
2018-11-28T09:18:46.176Z,3.53
2018-11-28T09:21:36.867Z,4.57
2018-11-28T09:24:27.693Z,6.83
2018-11-28T09:27:18.562Z,6.33
2018-11-28T09:30:13.442Z,6.10
2018-11-28T09:33:03.437Z,5.57
2018-11-28T09:35:54.362Z,4.10
2018-11-28T09:38:45.193Z,4.20
2018-11-28T09:41:35.087Z,4.10
2018-11-28T09:44:25.032Z,4.27
2018-11-28T09:47:14.843Z,4.20
2018-11-28T09:50:04.706Z,4.27
2018-11-28T09:52:54.665Z,3.83
2018-11-28T09:55:45.283Z,3.60
2018-11-28T09:58:36.099Z,3.27
2018-11-28T10:01:25.805Z,3.37
2018-11-28T10:04:15.714Z,3.70
2018-11-28T10:07:06.034Z,3.80
2018-11-28T10:09:56.849Z,3.30
2018-11-28T10:12:47.552Z,3.10
2018-11-28T10:15:37.423Z,3.07
2018-11-28T10:18:28.173Z,2.87
2018-11-28T10:21:18.981Z,2.93
2018-11-28T10:24:10.199Z,3.10
2018-11-28T10:27:02.366Z,3.33
2018-11-28T10:29:52.460Z,2.83
2018-11-28T10:32:42.394Z,2.70
2018-11-28T10:35:33.112Z,2.80
2018-11-28T10:38:24.490Z,2.43
2018-11-28T10:41:14.659Z,2.67
2018-11-28T10:44:04.626Z,3.13
2018-11-28T10:46:55.406Z,3.03
2018-11-28T10:49:46.277Z,3.37
2018-11-28T10:52:37.014Z,3.00
2018-11-28T10:55:28.073Z,3.00
2018-11-28T10:58:18.567Z,2.60
2018-11-28T11:01:14.368Z,2.70
2018-11-28T11:04:09.822Z,2.30
2018-11-28T11:07:04.789Z,2.73
2018-11-28T11:09:59.695Z,2.30
2018-11-28T11:12:55.619Z,3.10
2018-11-28T11:15:51.954Z,2.50
2018-11-28T11:18:41.979Z,2.27
2018-11-28T11:21:32.756Z,2.50
2018-11-28T11:24:23.692Z,2.43
2018-11-28T11:27:14.422Z,2.63
2018-11-28T11:30:05.603Z,2.60
2018-11-28T11:32:55.846Z,2.60
2018-11-28T11:35:46.557Z,4.53
2018-11-28T11:38:37.338Z,7.27
2018-11-28T11:41:27.112Z,7.80
2018-11-28T11:44:17.079Z,8.20
2018-11-28T11:47:08.354Z,8.13
2018-11-28T11:49:58.817Z,7.37
2018-11-28T11:52:49.565Z,6.17
2018-11-28T11:55:40.220Z,5.47
2018-11-28T11:58:31.236Z,4.80
2018-11-28T12:01:22.185Z,3.83
2018-11-28T12:04:13.039Z,2.50
2018-11-28T12:07:03.870Z,2.27
2018-11-28T12:09:54.968Z,2.63
2018-11-28T12:12:51.523Z,2.27
2018-11-28T12:15:36.647Z,2.03
2018-11-28T12:18:27.410Z,2.30
2018-11-28T12:21:18.070Z,1.97
2018-11-28T12:24:08.857Z,2.20
2018-11-28T12:27:00.072Z,2.50
2018-11-28T12:29:49.971Z,2.50
2018-11-28T12:32:41.057Z,2.20
2018-11-28T12:35:31.730Z,2.80
2018-11-28T12:38:22.445Z,3.83
2018-11-28T12:41:13.481Z,3.77
2018-11-28T12:44:04.330Z,3.17
2018-11-28T12:46:55.356Z,2.67
2018-11-28T12:49:45.693Z,3.33
2018-11-28T12:52:36.590Z,2.70
2018-11-28T12:55:27.397Z,2.60
2018-11-28T12:58:20.106Z,2.70
2018-11-28T13:01:10.711Z,3.20
2018-11-28T13:04:00.890Z,3.40
2018-11-28T13:06:51.735Z,2.90
2018-11-28T13:09:42.455Z,3.47
2018-11-28T13:12:33.098Z,3.67
2018-11-28T13:15:25.220Z,3.47
2018-11-28T13:18:16.012Z,3.10
2018-11-28T13:21:07.303Z,3.40
2018-11-28T13:23:57.700Z,3.70
2018-11-28T13:26:48.301Z,4.03
2018-11-28T13:29:38.069Z,4.33
2018-11-28T13:32:28.652Z,4.47
2018-11-28T13:35:24.043Z,3.80
2018-11-28T13:38:14.997Z,4.27
2018-11-28T13:41:05.454Z,4.57
2018-11-28T13:43:55.396Z,6.00
2018-11-28T13:46:46.402Z,5.63
2018-11-28T13:49:37.166Z,5.40
2018-11-28T13:52:28.179Z,5.50
2018-11-28T13:55:40.138Z,4.20
2018-11-28T13:58:13.098Z,3.23
2018-11-28T14:01:03.794Z,2.63
2018-11-28T14:03:53.826Z,3.03
2018-11-28T14:06:44.722Z,3.00
2018-11-28T14:09:36.037Z,3.07
2018-11-28T14:12:26.723Z,3.40
2018-11-28T14:15:20.055Z,3.63
2018-11-28T14:18:14.604Z,4.27
2018-11-28T14:21:05.207Z,4.00
2018-11-28T14:23:57.130Z,3.17
2018-11-28T14:26:47.748Z,2.80
2018-11-28T14:29:38.482Z,2.57
2018-11-28T14:32:28.546Z,1.90
2018-11-28T14:35:19.286Z,1.70
2018-11-28T14:38:10.064Z,1.70
2018-11-28T14:41:00.797Z,1.67
2018-11-28T14:43:51.591Z,2.63
2018-11-28T14:46:41.625Z,1.93
2018-11-28T14:49:32.473Z,1.80
2018-11-28T14:52:22.295Z,2.10
2018-11-28T14:55:19.577Z,1.87
2018-11-28T14:58:11.289Z,2.40
2018-11-28T15:01:01.196Z,1.87
2018-11-28T15:03:51.175Z,2.60
2018-11-28T15:06:59.878Z,2.07
2018-11-28T15:09:57.195Z,2.80
2018-11-28T15:12:48.062Z,2.63
2018-11-28T15:15:38.796Z,3.17
2018-11-28T15:18:29.583Z,3.47
2018-11-28T15:21:20.475Z,4.00
2018-11-28T15:24:10.785Z,3.10
2018-11-28T15:27:01.737Z,3.47
2018-11-28T15:29:51.655Z,2.80
2018-11-28T15:32:42.523Z,2.10
2018-11-28T15:35:33.743Z,2.50
2018-11-28T15:38:24.310Z,1.80
2018-11-28T15:41:15.146Z,2.23
2018-11-28T15:44:05.858Z,2.00
2018-11-28T15:46:56.646Z,2.20
2018-11-28T15:49:47.528Z,1.90
2018-11-28T15:52:38.528Z,2.40
2018-11-28T15:55:28.963Z,2.57
2018-11-28T15:58:19.832Z,3.20
2018-11-28T16:01:09.862Z,2.30
2018-11-28T16:03:59.757Z,2.50
2018-11-28T16:06:50.475Z,2.77
2018-11-28T16:09:46.279Z,2.23
2018-11-28T16:12:37.026Z,2.30
2018-11-28T16:15:30.789Z,2.30
2018-11-28T16:18:20.939Z,2.20
2018-11-28T16:21:11.751Z,2.60
2018-11-28T16:24:02.540Z,2.27
2018-11-28T16:26:53.584Z,2.07
2018-11-28T16:29:44.278Z,2.40
2018-11-28T16:32:35.024Z,2.40
2018-11-28T16:35:24.979Z,2.70
2018-11-28T16:38:15.648Z,2.80
2018-11-28T16:41:06.675Z,3.43
2018-11-28T16:43:57.435Z,2.90
2018-11-28T16:46:48.180Z,3.00
2018-11-28T16:49:39.145Z,2.93
2018-11-28T16:52:29.857Z,2.90
2018-11-28T16:55:20.595Z,3.23
2018-11-28T16:58:11.430Z,2.93
2018-11-28T17:01:02.272Z,3.13
2018-11-28T17:03:52.991Z,2.50
2018-11-28T17:06:42.842Z,2.40
2018-11-28T17:09:33.094Z,2.37
2018-11-28T17:12:23.827Z,2.50
2018-11-28T17:15:17.419Z,2.33
2018-11-28T17:18:08.159Z,2.47
2018-11-28T17:20:58.364Z,2.50
2018-11-28T17:23:48.519Z,2.60
2018-11-28T17:26:39.302Z,3.17
2018-11-28T17:29:30.601Z,2.17
2018-11-28T17:32:21.036Z,2.30
2018-11-28T17:35:12.017Z,2.20
2018-11-28T17:38:02.242Z,1.90
2018-11-28T17:40:53.794Z,2.40
2018-11-28T17:43:44.546Z,3.20
2018-11-28T17:46:35.506Z,3.03
2018-11-28T17:49:28.125Z,2.47
2018-11-28T17:52:17.091Z,2.50
2018-11-28T17:55:10.471Z,2.80
2018-11-28T17:58:01.094Z,2.30
2018-11-28T18:00:51.914Z,2.80
2018-11-28T18:03:42.618Z,2.20
2018-11-28T18:06:33.517Z,2.47
2018-11-28T18:09:24.301Z,2.70
2018-11-28T18:12:14.292Z,1.97
2018-11-28T18:15:05.531Z,2.07
2018-11-28T18:17:57.036Z,2.17
2018-11-28T18:20:50.206Z,1.90
2018-11-28T18:23:38.323Z,2.13
2018-11-28T18:26:29.932Z,2.40
2018-11-28T18:29:20.796Z,2.33
2018-11-28T18:32:10.791Z,2.33
2018-11-28T18:35:00.544Z,2.57
2018-11-28T18:37:51.425Z,1.90
2018-11-28T18:40:42.333Z,2.00
2018-11-28T18:43:33.032Z,2.07
2018-11-28T18:46:22.882Z,1.87
2018-11-28T18:49:13.587Z,2.10
2018-11-28T18:52:04.374Z,2.23
2018-11-28T18:54:55.229Z,2.27
2018-11-28T18:57:46.126Z,1.90
2018-11-28T19:00:36.939Z,1.90
2018-11-28T19:03:27.530Z,1.90
2018-11-28T19:06:18.536Z,1.93
2018-11-28T19:09:14.577Z,1.93
2018-11-28T19:12:05.083Z,1.67
2018-11-28T19:14:55.527Z,1.60
2018-11-28T19:17:46.202Z,2.17
2018-11-28T19:20:36.294Z,2.03
2018-11-28T19:23:26.563Z,2.37
2018-11-28T19:26:16.746Z,1.70
2018-11-28T19:29:07.587Z,2.17
2018-11-28T19:31:58.119Z,2.03
2018-11-28T19:34:48.095Z,1.90
2018-11-28T19:37:38.724Z,1.93
2018-11-28T19:40:35.545Z,1.80
2018-11-28T19:43:26.264Z,2.00
2018-11-28T19:46:16.256Z,2.03
2018-11-28T19:49:06.100Z,2.07
2018-11-28T19:51:56.821Z,1.87
2018-11-28T19:54:46.795Z,1.70
2018-11-28T19:57:36.900Z,2.53
2018-11-28T20:00:27.863Z,1.83
2018-11-28T20:03:18.724Z,1.97
2018-11-28T20:06:08.555Z,1.90
2018-11-28T20:08:58.555Z,1.90
2018-11-28T20:11:50.009Z,1.90
2018-11-28T20:14:40.200Z,2.00
2018-11-28T20:17:30.104Z,1.90
2018-11-28T20:20:21.089Z,1.77
2018-11-28T20:23:11.544Z,2.10
2018-11-28T20:26:01.561Z,1.97
2018-11-28T20:28:52.310Z,2.07
2018-11-28T20:31:43.387Z,2.07
2018-11-28T20:34:33.207Z,1.80
2018-11-28T20:37:23.234Z,1.70
2018-11-28T20:40:16.823Z,2.23
2018-11-28T20:43:07.163Z,2.20
2018-11-28T20:45:57.278Z,2.00
2018-11-28T20:48:47.430Z,2.07
2018-11-28T20:51:37.324Z,2.03
2018-11-28T20:54:27.406Z,2.07
2018-11-28T20:57:18.171Z,1.67
2018-11-28T21:00:13.802Z,2.00
2018-11-28T21:03:04.326Z,1.97
2018-11-28T21:05:55.089Z,1.60
2018-11-28T21:08:44.754Z,2.00
2018-11-28T21:11:34.559Z,2.43
2018-11-28T21:14:24.542Z,2.03
2018-11-28T21:17:15.336Z,1.90
2018-11-28T21:20:06.444Z,1.60
2018-11-28T21:23:01.406Z,1.80
2018-11-28T21:25:52.321Z,1.60
2018-11-28T21:28:43.024Z,1.50
2018-11-28T21:31:33.635Z,1.60
2018-11-28T21:34:24.591Z,1.80
2018-11-28T21:37:15.546Z,1.80
2018-11-28T21:40:06.263Z,1.87
2018-11-28T21:42:57.223Z,1.60
2018-11-28T21:45:47.277Z,1.90
2018-11-28T21:48:38.864Z,1.60
2018-11-28T21:51:29.626Z,1.67
2018-11-28T21:54:19.715Z,2.17
2018-11-28T21:57:10.774Z,1.63
2018-11-28T22:00:01.012Z,2.10
2018-11-28T22:02:50.922Z,2.00
2018-11-28T22:05:41.880Z,2.10
2018-11-28T22:08:32.563Z,2.10
2018-11-28T22:11:22.641Z,1.83
2018-11-28T22:14:13.480Z,2.07
2018-11-28T22:17:04.225Z,1.77
2018-11-28T22:19:55.118Z,2.10
2018-11-28T22:22:45.958Z,1.93
2018-11-28T22:25:37.180Z,1.97
2018-11-28T22:28:27.510Z,2.00
2018-11-28T22:31:18.281Z,2.00
2018-11-28T22:34:09.143Z,2.27
2018-11-28T22:36:59.092Z,2.40
2018-11-28T22:39:49.846Z,2.37
2018-11-28T22:42:40.995Z,1.87
2018-11-28T22:45:33.082Z,2.40
2018-11-28T22:48:23.382Z,2.17
2018-11-28T22:51:14.104Z,2.10
2018-11-28T22:54:04.947Z,1.97
2018-11-28T22:56:55.658Z,2.07
2018-11-28T22:59:45.802Z,2.47
2018-11-28T23:02:47.464Z,2.33
2018-11-28T23:05:43.182Z,2.43
2018-11-28T23:08:33.241Z,2.53
2018-11-28T23:11:24.373Z,2.70
2018-11-28T23:14:15.091Z,2.30
2018-11-28T23:17:05.762Z,2.37
2018-11-28T23:19:56.594Z,2.43
2018-11-28T23:22:47.537Z,3.03
2018-11-28T23:25:38.262Z,2.63
2018-11-28T23:28:28.618Z,2.67
2018-11-28T23:31:18.738Z,2.50
2018-11-28T23:34:08.721Z,2.70
2018-11-28T23:36:58.802Z,2.50
2018-11-28T23:39:49.582Z,2.50
2018-11-28T23:42:40.482Z,2.53
2018-11-28T23:45:31.502Z,2.40
2018-11-28T23:48:23.003Z,2.43
2018-11-28T23:51:13.884Z,2.30
2018-11-28T23:54:04.634Z,2.37
2018-11-28T23:56:55.594Z,2.73
2018-11-28T23:59:46.317Z,2.87
